Time;durP1;ratioP1;P1;durP2;ratioP2;P2;SDS_P1;SDS_P2;PMS_P1;PMS_P2;Temp;Humidity;BMP_temperature;BMP_pressure;BME280_temperature;BME280_humidity;BME280_pressure;Samples;Min_cycle;Max_cycle;Signal;HPM_P1;HPM_P2
2023/09/20 06:00:59;;;;;;;8.10;4.57;;;;;;;;;;5714909;23;20579;-65
2023/09/20 06:03:25;;;;;;;11.00;5.63;;;;;;;;;;4970485;28;20467;-64
2023/09/20 06:05:51;;;;;;;24.90;7.30;;;;;;;;;;4956022;28;20435;-65
2023/09/20 06:08:17;;;;;;;18.73;6.00;;;;;;;;;;4955925;29;20479;-65
2023/09/20 06:10:44;;;;;;;13.07;5.10;;;;;;;;;;4950860;29;20430;-65
2023/09/20 06:13:10;;;;;;;37.00;8.57;;;;;;;;;;4936014;29;20495;-64
2023/09/20 06:15:37;;;;;;;14.03;5.43;;;;;;;;;;4993861;23;20499;-76
2023/09/20 06:18:03;;;;;;;8.63;4.80;;;;;;;;;;4975824;28;20718;-72
2023/09/20 06:20:29;;;;;;;7.97;4.27;;;;;;;;;;4976684;28;20415;-71
2023/09/20 06:22:56;;;;;;;13.10;4.87;;;;;;;;;;4978649;28;20825;-74
2023/09/20 06:25:22;;;;;;;14.80;4.70;;;;;;;;;;4975589;28;20472;-72
2023/09/20 06:27:55;;;;;;;11.13;4.83;;;;;;;;;;4983111;28;20773;-72
2023/09/20 06:30:21;;;;;;;13.93;4.70;;;;;;;;;;4978603;28;20482;-71
2023/09/20 06:32:47;;;;;;;11.37;4.80;;;;;;;;;;4966477;29;20447;-73
2023/09/20 06:35:20;;;;;;;12.60;4.40;;;;;;;;;;4981354;28;20821;-72
2023/09/20 06:37:47;;;;;;;12.93;4.47;;;;;;;;;;4982300;28;20454;-72
2023/09/20 06:40:23;;;;;;;12.97;4.30;;;;;;;;;;4982380;28;20913;-72
2023/09/20 06:42:50;;;;;;;12.63;4.40;;;;;;;;;;4982648;28;20466;-72
2023/09/20 06:45:17;;;;;;;9.57;4.60;;;;;;;;;;4981400;28;20444;-72
2023/09/20 06:47:44;;;;;;;13.17;3.90;;;;;;;;;;4981206;28;20455;-74
2023/09/20 06:50:12;;;;;;;9.10;3.50;;;;;;;;;;4961521;28;20436;-72
2023/09/20 06:52:39;;;;;;;6.93;3.37;;;;;;;;;;4966163;28;20421;-72
2023/09/20 06:55:05;;;;;;;6.90;3.40;;;;;;;;;;4955150;29;20436;-72
2023/09/20 06:57:31;;;;;;;7.03;3.30;;;;;;;;;;4966676;28;20424;-73
2023/09/20 06:59:57;;;;;;;14.50;3.00;;;;;;;;;;4977703;28;20414;-72
2023/09/20 07:02:25;;;;;;;9.40;2.63;;;;;;;;;;4962725;28;20288;-73
2023/09/20 07:04:52;;;;;;;8.23;3.53;;;;;;;;;;4965361;28;20439;-72
2023/09/20 07:07:18;;;;;;;4.77;2.80;;;;;;;;;;4974045;28;20420;-72
2023/09/20 07:09:44;;;;;;;5.47;3.33;;;;;;;;;;4969603;28;20439;-72
2023/09/20 07:12:10;;;;;;;5.07;2.53;;;;;;;;;;4972237;28;20480;-72
2023/09/20 07:14:37;;;;;;;9.30;3.20;;;;;;;;;;4973387;28;20490;-72
2023/09/20 07:17:03;;;;;;;6.30;3.27;;;;;;;;;;4967478;28;20448;-72
2023/09/20 07:19:35;;;;;;;36.93;9.77;;;;;;;;;;4972094;28;20700;-74
2023/09/20 07:22:03;;;;;;;10.23;3.27;;;;;;;;;;4973543;28;20436;-71
2023/09/20 07:24:32;;;;;;;11.33;3.50;;;;;;;;;;4963691;28;20567;-72
2023/09/20 07:26:58;;;;;;;7.50;3.10;;;;;;;;;;4969252;28;20482;-72
2023/09/20 07:29:25;;;;;;;7.90;3.30;;;;;;;;;;4961682;28;20428;-73
2023/09/20 07:31:51;;;;;;;7.33;3.30;;;;;;;;;;4965571;28;20434;-72
2023/09/20 07:34:20;;;;;;;11.03;3.10;;;;;;;;;;4962765;28;20456;-72
2023/09/20 07:36:49;;;;;;;8.97;3.50;;;;;;;;;;4971066;28;20432;-72
2023/09/20 07:39:17;;;;;;;11.50;3.43;;;;;;;;;;4963889;28;20433;-71
2023/09/20 07:41:50;;;;;;;8.90;2.90;;;;;;;;;;4954442;28;20433;-71
2023/09/20 07:44:17;;;;;;;10.20;3.83;;;;;;;;;;4967749;28;20985;-71
2023/09/20 07:46:43;;;;;;;9.13;3.33;;;;;;;;;;4963948;28;20433;-70
2023/09/20 07:49:09;;;;;;;9.50;3.30;;;;;;;;;;4968864;28;20435;-71
2023/09/20 07:51:39;;;;;;;6.60;3.37;;;;;;;;;;4962867;28;20932;-71
2023/09/20 07:54:06;;;;;;;6.90;2.90;;;;;;;;;;4969773;28;20538;-71
2023/09/20 07:56:32;;;;;;;9.40;3.80;;;;;;;;;;4955295;28;20912;-72
2023/09/20 07:58:58;;;;;;;12.40;4.70;;;;;;;;;;4961418;28;20420;-72
2023/09/20 08:01:29;;;;;;;8.13;3.97;;;;;;;;;;4958093;28;20435;-72
2023/09/20 08:03:58;;;;;;;11.63;4.00;;;;;;;;;;4955206;28;20878;-72
2023/09/20 08:06:26;;;;;;;6.47;3.80;;;;;;;;;;4973421;28;20420;-72
2023/09/20 08:08:52;;;;;;;9.30;3.67;;;;;;;;;;4973389;28;20427;-72
2023/09/20 08:11:18;;;;;;;14.17;3.70;;;;;;;;;;4972500;28;20431;-71
2023/09/20 08:13:44;;;;;;;12.53;4.30;;;;;;;;;;4971203;28;20433;-72
2023/09/20 08:16:12;;;;;;;7.80;3.30;;;;;;;;;;4972434;28;20428;-71
2023/09/20 08:21:23;;;;;;;16.87;3.00;;;;;;;;;;4973150;28;20434;-74
2023/09/20 08:59:55;;;;;;;4.20;2.70;;;;;;;;;;4969820;28;20534;-74
2023/09/20 09:02:22;;;;;;;8.33;3.63;;;;;;;;;;4972999;28;20820;-73
2023/09/20 09:04:53;;;;;;;13.33;3.30;;;;;;;;;;4972565;28;20531;-73
2023/09/20 09:07:19;;;;;;;8.87;3.10;;;;;;;;;;4973129;28;20808;-74
2023/09/20 09:09:49;;;;;;;4.33;2.60;;;;;;;;;;4972722;28;20443;-73
2023/09/20 09:12:15;;;;;;;8.20;3.00;;;;;;;;;;4972687;28;20481;-73
2023/09/20 09:14:42;;;;;;;8.43;2.90;;;;;;;;;;4973625;28;20484;-73
2023/09/20 09:17:08;;;;;;;6.80;3.40;;;;;;;;;;4954892;28;20428;-74
2023/09/20 09:19:34;;;;;;;5.40;2.60;;;;;;;;;;4968677;28;20428;-74
2023/09/20 09:22:01;;;;;;;4.27;2.43;;;;;;;;;;4964027;28;20932;-73
2023/09/20 09:24:28;;;;;;;6.40;3.47;;;;;;;;;;4970375;28;20479;-74
2023/09/20 09:27:05;;;;;;;6.73;2.50;;;;;;;;;;4973412;28;20502;-75
2023/09/20 09:29:31;;;;;;;5.70;2.90;;;;;;;;;;4971215;28;20439;-76
2023/09/20 09:31:57;;;;;;;8.23;2.67;;;;;;;;;;4972080;28;20455;-77
2023/09/20 09:34:23;;;;;;;12.03;2.87;;;;;;;;;;4972835;28;20522;-76
2023/09/20 09:36:49;;;;;;;7.07;2.63;;;;;;;;;;4974373;28;20419;-75
2023/09/20 09:39:15;;;;;;;13.40;2.50;;;;;;;;;;4975694;28;20876;-76
2023/09/20 09:41:42;;;;;;;6.50;2.70;;;;;;;;;;4976719;28;20447;-73
2023/09/20 09:44:08;;;;;;;4.27;2.13;;;;;;;;;;4975884;28;20471;-75
2023/09/20 09:46:36;;;;;;;5.73;2.90;;;;;;;;;;4976329;28;20420;-75
2023/09/20 09:49:03;;;;;;;3.97;2.70;;;;;;;;;;4976273;28;20444;-75
2023/09/20 09:51:32;;;;;;;6.93;3.00;;;;;;;;;;4976260;28;20904;-74
2023/09/20 09:53:59;;;;;;;4.00;2.40;;;;;;;;;;4974519;28;20443;-76
2023/09/20 09:56:25;;;;;;;3.00;2.33;;;;;;;;;;4976111;28;20412;-75
2023/09/20 09:58:51;;;;;;;3.67;2.10;;;;;;;;;;4975826;28;20478;-74
2023/09/20 10:01:17;;;;;;;5.60;2.93;;;;;;;;;;4976133;28;20563;-74
2023/09/20 10:03:47;;;;;;;4.10;2.40;;;;;;;;;;4971366;28;20459;-75
2023/09/20 10:06:23;;;;;;;5.73;2.60;;;;;;;;;;4958343;28;20421;-76
2023/09/20 10:08:54;;;;;;;4.40;2.87;;;;;;;;;;4963362;28;20748;-77
2023/09/20 10:11:23;;;;;;;7.43;2.53;;;;;;;;;;4977884;28;20498;-77
2023/09/20 10:13:53;;;;;;;6.33;3.50;;;;;;;;;;4969408;28;20450;-76
2023/09/20 10:16:19;;;;;;;4.20;2.73;;;;;;;;;;4977121;28;20914;-77
2023/09/20 10:18:51;;;;;;;4.67;2.00;;;;;;;;;;4975594;28;20776;-77
2023/09/20 10:21:24;;;;;;;8.43;2.90;;;;;;;;;;4975861;28;20483;-76
2023/09/20 10:24:00;;;;;;;5.60;2.67;;;;;;;;;;4975349;28;20994;-76
2023/09/20 10:26:41;;;;;;;3.50;2.63;;;;;;;;;;4975386;28;20790;-77
2023/09/20 10:29:24;;;;;;;5.17;2.80;;;;;;;;;;4964207;28;20412;-76
2023/09/20 10:31:50;;;;;;;6.53;3.20;;;;;;;;;;4975576;28;20420;-76
2023/09/20 10:34:21;;;;;;;4.53;3.00;;;;;;;;;;4974537;28;20451;-76
2023/09/20 10:36:54;;;;;;;4.13;2.77;;;;;;;;;;4965076;28;20448;-76
2023/09/20 10:39:19;;;;;;;5.03;2.50;;;;;;;;;;4975311;28;20489;-76
2023/09/20 10:41:47;;;;;;;6.20;3.00;;;;;;;;;;4975327;28;20911;-76
2023/09/20 10:44:28;;;;;;;5.27;3.10;;;;;;;;;;4974265;28;20741;-76
2023/09/20 10:46:54;;;;;;;6.67;3.20;;;;;;;;;;4966737;28;20417;-76
2023/09/20 10:49:43;;;;;;;3.67;2.77;;;;;;;;;;4970345;28;20421;-76
2023/09/20 10:52:09;;;;;;;5.20;3.50;;;;;;;;;;4956276;28;20419;-71
2023/09/20 10:54:39;;;;;;;4.57;2.93;;;;;;;;;;4965181;28;20586;-72
2023/09/20 10:57:07;;;;;;;5.33;2.90;;;;;;;;;;4975002;28;20407;-72
2023/09/20 10:59:34;;;;;;;3.93;2.80;;;;;;;;;;4975040;28;20427;-72
2023/09/20 11:02:13;;;;;;;6.57;3.30;;;;;;;;;;4974781;28;20795;-72
2023/09/20 11:04:40;;;;;;;4.40;2.90;;;;;;;;;;4970185;28;20471;-72
2023/09/20 11:07:06;;;;;;;7.63;2.90;;;;;;;;;;4966100;28;20430;-71
2023/09/20 11:09:38;;;;;;;4.07;3.00;;;;;;;;;;4955389;28;20432;-71
2023/09/20 11:12:06;;;;;;;5.10;3.30;;;;;;;;;;4965168;28;20428;-71
2023/09/20 11:14:36;;;;;;;7.73;3.63;;;;;;;;;;4973714;28;20876;-71
2023/09/20 11:17:03;;;;;;;4.90;3.20;;;;;;;;;;4973857;28;20795;-71
2023/09/20 11:19:29;;;;;;;4.20;3.00;;;;;;;;;;4972735;28;20424;-72
2023/09/20 11:21:56;;;;;;;9.43;3.10;;;;;;;;;;4974419;28;20475;-70
2023/09/20 11:24:23;;;;;;;7.80;2.77;;;;;;;;;;4973847;28;20501;-70
2023/09/20 11:26:49;;;;;;;6.50;3.10;;;;;;;;;;4973348;28;20432;-71
2023/09/20 11:29:16;;;;;;;6.17;3.20;;;;;;;;;;4974099;28;20507;-71
2023/09/20 11:31:45;;;;;;;5.47;3.40;;;;;;;;;;4967898;28;20420;-69
2023/09/20 11:34:11;;;;;;;3.73;2.67;;;;;;;;;;4972462;28;20468;-70
2023/09/20 11:36:44;;;;;;;4.93;2.40;;;;;;;;;;4958539;28;20541;-70
2023/09/20 11:39:14;;;;;;;3.83;2.90;;;;;;;;;;4954855;29;20424;-70
2023/09/20 11:41:42;;;;;;;3.17;2.70;;;;;;;;;;4959876;28;20446;-69
2023/09/20 11:44:08;;;;;;;5.23;3.10;;;;;;;;;;4973538;28;20487;-69
2023/09/20 11:46:36;;;;;;;5.07;2.43;;;;;;;;;;4972326;28;20528;-69
2023/09/20 11:49:03;;;;;;;3.87;2.87;;;;;;;;;;4973823;28;20436;-69
2023/09/20 11:51:34;;;;;;;5.70;2.20;;;;;;;;;;4973804;28;20412;-68
2023/09/20 11:54:01;;;;;;;5.57;2.43;;;;;;;;;;4973611;28;20779;-68
2023/09/20 11:56:30;;;;;;;4.93;2.87;;;;;;;;;;4973756;28;20463;-70
2023/09/20 11:58:59;;;;;;;4.57;2.20;;;;;;;;;;4973426;28;20455;-71
2023/09/20 12:01:26;;;;;;;3.57;2.57;;;;;;;;;;4973470;28;20845;-70
2023/09/20 12:03:52;;;;;;;5.40;2.70;;;;;;;;;;4972555;28;20530;-70
2023/09/20 12:06:19;;;;;;;3.20;2.23;;;;;;;;;;4971846;28;20811;-70
2023/09/20 12:08:45;;;;;;;7.07;2.33;;;;;;;;;;4973390;28;20471;-70
2023/09/20 12:11:11;;;;;;;5.57;2.77;;;;;;;;;;4967816;28;20421;-70
2023/09/20 12:13:38;;;;;;;3.17;2.30;;;;;;;;;;4971309;28;20940;-71
2023/09/20 12:16:04;;;;;;;4.37;2.23;;;;;;;;;;4973063;28;20950;-71
2023/09/20 12:18:30;;;;;;;3.13;1.80;;;;;;;;;;4971721;28;20493;-71
2023/09/20 12:20:55;;;;;;;2.77;2.00;;;;;;;;;;4972501;28;20907;-72
2023/09/20 12:23:21;;;;;;;3.83;1.90;;;;;;;;;;4972661;28;20890;-71
2023/09/20 12:25:47;;;;;;;2.60;2.00;;;;;;;;;;4973666;28;20424;-74
2023/09/20 12:28:13;;;;;;;2.03;1.70;;;;;;;;;;4968205;28;20424;-72
2023/09/20 12:30:39;;;;;;;2.57;1.90;;;;;;;;;;4967120;28;20571;-73
2023/09/20 12:33:07;;;;;;;6.63;3.47;;;;;;;;;;4971127;28;20431;-72
2023/09/20 12:35:33;;;;;;;2.57;1.80;;;;;;;;;;4973730;28;20937;-71
2023/09/20 12:38:01;;;;;;;11.40;2.00;;;;;;;;;;4971956;28;20518;-71
2023/09/20 12:40:28;;;;;;;4.43;2.43;;;;;;;;;;4955907;28;20438;-71
2023/09/20 12:42:54;;;;;;;2.50;1.77;;;;;;;;;;4965288;28;20510;-71
2023/09/20 12:45:21;;;;;;;5.90;2.47;;;;;;;;;;4972520;28;20833;-70
2023/09/20 12:47:47;;;;;;;2.00;1.53;;;;;;;;;;4970189;28;20432;-71
2023/09/20 12:50:13;;;;;;;3.73;2.57;;;;;;;;;;4963266;28;20460;-70
2023/09/20 12:52:39;;;;;;;4.00;2.30;;;;;;;;;;4962542;28;20434;-70
2023/09/20 12:55:05;;;;;;;3.57;2.33;;;;;;;;;;4964425;28;20837;-70
2023/09/20 12:57:31;;;;;;;3.53;2.03;;;;;;;;;;4957360;28;20928;-71
2023/09/20 13:00:00;;;;;;;3.70;2.20;;;;;;;;;;4967432;28;20426;-72
2023/09/20 13:02:27;;;;;;;2.80;2.17;;;;;;;;;;4972911;28;20503;-72
2023/09/20 13:04:53;;;;;;;3.60;1.70;;;;;;;;;;4972874;28;20459;-72
2023/09/20 13:07:19;;;;;;;3.17;1.90;;;;;;;;;;4962857;28;20447;-71
2023/09/20 13:09:46;;;;;;;5.07;1.90;;;;;;;;;;4972445;28;20482;-71
2023/09/20 13:12:13;;;;;;;3.13;1.77;;;;;;;;;;4957729;28;20441;-71
2023/09/20 13:14:40;;;;;;;5.60;2.83;;;;;;;;;;4962004;28;20467;-71
2023/09/20 13:17:06;;;;;;;3.00;2.03;;;;;;;;;;4975820;28;20419;-71
2023/09/20 13:19:33;;;;;;;11.33;2.37;;;;;;;;;;4968708;28;20436;-71
2023/09/20 13:22:01;;;;;;;4.57;1.67;;;;;;;;;;4968983;28;20480;-71
2023/09/20 13:24:27;;;;;;;4.67;2.67;;;;;;;;;;4963475;28;20479;-72
2023/09/20 13:26:53;;;;;;;5.00;2.03;;;;;;;;;;4961499;28;20927;-71
2023/09/20 13:29:19;;;;;;;2.77;2.10;;;;;;;;;;4961237;28;20915;-71
2023/09/20 13:31:45;;;;;;;4.63;2.20;;;;;;;;;;4975909;28;20420;-71
2023/09/20 13:34:15;;;;;;;4.20;2.20;;;;;;;;;;4974691;28;20435;-71
2023/09/20 13:36:44;;;;;;;3.33;1.90;;;;;;;;;;4974790;28;20424;-71
2023/09/20 13:39:10;;;;;;;3.03;1.70;;;;;;;;;;4971394;28;20440;-71
2023/09/20 13:41:36;;;;;;;5.57;2.10;;;;;;;;;;4972934;28;20792;-72
2023/09/20 13:44:03;;;;;;;2.80;1.90;;;;;;;;;;4975410;28;20495;-71
2023/09/20 13:46:29;;;;;;;3.47;1.83;;;;;;;;;;4976053;28;20442;-71
2023/09/20 13:48:55;;;;;;;2.20;1.87;;;;;;;;;;4975968;28;20826;-71
2023/09/20 13:51:21;;;;;;;2.60;1.60;;;;;;;;;;4974283;28;20421;-71
2023/09/20 13:53:49;;;;;;;3.10;1.80;;;;;;;;;;4962635;28;20986;-71
2023/09/20 13:56:19;;;;;;;3.77;2.10;;;;;;;;;;4967525;28;20427;-72
2023/09/20 13:58:45;;;;;;;7.33;2.00;;;;;;;;;;4960179;28;20438;-71
2023/09/20 14:01:11;;;;;;;3.47;2.43;;;;;;;;;;4964729;28;20480;-71
2023/09/20 14:03:37;;;;;;;5.33;2.43;;;;;;;;;;4955810;28;20472;-72
2023/09/20 14:06:04;;;;;;;4.53;2.80;;;;;;;;;;4967233;28;20427;-72
2023/09/20 14:08:32;;;;;;;3.20;2.17;;;;;;;;;;4958488;28;20456;-75
2023/09/20 14:10:57;;;;;;;5.20;2.37;;;;;;;;;;4970669;28;20869;-75
2023/09/20 14:13:24;;;;;;;2.80;2.00;;;;;;;;;;4962891;28;20524;-76
2023/09/20 14:15:50;;;;;;;2.37;1.77;;;;;;;;;;4976273;28;20899;-74
2023/09/20 14:18:17;;;;;;;2.63;1.40;;;;;;;;;;4965645;28;20448;-76
2023/09/20 14:20:47;;;;;;;4.77;2.30;;;;;;;;;;4959566;28;20432;-76
2023/09/20 14:23:14;;;;;;;3.60;2.40;;;;;;;;;;4966549;28;20558;-77
2023/09/20 14:25:40;;;;;;;4.50;2.40;;;;;;;;;;4975768;28;20522;-75
2023/09/20 14:28:06;;;;;;;3.13;2.03;;;;;;;;;;4974319;28;20428;-76
2023/09/20 14:30:37;;;;;;;2.40;1.90;;;;;;;;;;4975992;28;20439;-76
2023/09/20 14:33:03;;;;;;;2.47;1.50;;;;;;;;;;4976430;28;20424;-77
2023/09/20 14:35:29;;;;;;;3.17;1.87;;;;;;;;;;4974662;28;20451;-76
2023/09/20 14:37:55;;;;;;;2.90;1.73;;;;;;;;;;4976042;28;20419;-76
2023/09/20 14:40:21;;;;;;;3.10;1.90;;;;;;;;;;4975305;28;20452;-76
2023/09/20 14:42:51;;;;;;;7.03;1.80;;;;;;;;;;4975016;28;20403;-75
2023/09/20 14:45:22;;;;;;;2.33;1.87;;;;;;;;;;4975239;28;20981;-75
2023/09/20 14:47:49;;;;;;;3.27;1.47;;;;;;;;;;4975344;28;20412;-76
2023/09/20 14:50:15;;;;;;;3.40;1.63;;;;;;;;;;4975139;28;20411;-77
2023/09/20 14:52:42;;;;;;;3.60;1.67;;;;;;;;;;4975054;28;20831;-75
2023/09/20 14:55:09;;;;;;;2.70;1.60;;;;;;;;;;4974713;28;20435;-76
2023/09/20 14:57:35;;;;;;;3.80;2.03;;;;;;;;;;4975169;28;20436;-75
2023/09/20 15:00:05;;;;;;;3.10;2.20;;;;;;;;;;4975435;28;20447;-76
2023/09/20 15:02:31;;;;;;;4.77;1.80;;;;;;;;;;4975062;28;20396;-76
2023/09/20 15:04:59;;;;;;;6.20;2.23;;;;;;;;;;4975145;28;20435;-76
2023/09/20 15:07:27;;;;;;;3.13;2.10;;;;;;;;;;4974881;28;20400;-76
2023/09/20 15:09:53;;;;;;;3.43;1.90;;;;;;;;;;4974686;28;20439;-76
2023/09/20 15:12:19;;;;;;;2.97;1.47;;;;;;;;;;4974363;28;20965;-76
2023/09/20 15:14:47;;;;;;;4.37;1.70;;;;;;;;;;4974182;28;20475;-76
2023/09/20 15:17:13;;;;;;;5.13;2.23;;;;;;;;;;4974754;28;20419;-76
2023/09/20 15:19:39;;;;;;;3.40;2.10;;;;;;;;;;4974238;28;20411;-76
2023/09/20 15:22:06;;;;;;;5.47;1.70;;;;;;;;;;4974294;28;20436;-76
2023/09/20 15:24:32;;;;;;;3.17;1.80;;;;;;;;;;4974341;28;20517;-76
2023/09/20 15:26:58;;;;;;;3.20;1.90;;;;;;;;;;4974250;28;20807;-75
2023/09/20 15:29:24;;;;;;;4.30;1.57;;;;;;;;;;4974282;28;20408;-75
2023/09/20 15:31:51;;;;;;;4.20;1.80;;;;;;;;;;4970632;28;20452;-77
2023/09/20 15:34:17;;;;;;;3.10;1.77;;;;;;;;;;4954108;28;20444;-76
2023/09/20 15:36:43;;;;;;;2.43;1.60;;;;;;;;;;4955106;29;20925;-75
2023/09/20 15:39:10;;;;;;;2.53;2.00;;;;;;;;;;4955322;28;20424;-75
2023/09/20 15:41:37;;;;;;;2.27;1.53;;;;;;;;;;4969537;28;20424;-76
2023/09/20 15:44:04;;;;;;;2.80;1.73;;;;;;;;;;4967430;28;20832;-76
2023/09/20 15:46:34;;;;;;;3.00;2.17;;;;;;;;;;4970084;28;21093;-76
2023/09/20 15:49:00;;;;;;;7.73;2.37;;;;;;;;;;4968879;28;20471;-76
2023/09/20 15:51:26;;;;;;;2.03;1.60;;;;;;;;;;4967670;28;20532;-76
2023/09/20 15:53:53;;;;;;;4.97;2.00;;;;;;;;;;4969293;28;20443;-76
2023/09/20 15:56:19;;;;;;;3.90;2.40;;;;;;;;;;4970161;28;20426;-76
2023/09/20 15:58:45;;;;;;;3.40;2.20;;;;;;;;;;4975557;28;20552;-76
2023/09/20 16:01:14;;;;;;;6.17;2.10;;;;;;;;;;4974236;28;20455;-77
2023/09/20 16:03:40;;;;;;;5.73;2.10;;;;;;;;;;4983800;28;20467;-77
2023/09/20 16:06:06;;;;;;;2.63;1.80;;;;;;;;;;4986423;28;20442;-77
2023/09/20 16:08:33;;;;;;;2.73;2.00;;;;;;;;;;4982784;28;20412;-76
2023/09/20 16:10:59;;;;;;;4.70;2.40;;;;;;;;;;4982678;28;20410;-76
2023/09/20 16:13:25;;;;;;;2.67;2.00;;;;;;;;;;4985485;28;20787;-76
2023/09/20 16:15:51;;;;;;;3.60;2.23;;;;;;;;;;4992072;28;20613;-78
2023/09/20 16:18:18;;;;;;;3.40;2.20;;;;;;;;;;4985163;28;20476;-77
2023/09/20 16:20:44;;;;;;;6.50;2.10;;;;;;;;;;4954044;29;20409;-76
2023/09/20 16:23:10;;;;;;;2.97;2.00;;;;;;;;;;4963609;28;20467;-77
2023/09/20 16:25:36;;;;;;;7.67;2.03;;;;;;;;;;4973242;28;20440;-76
2023/09/20 16:28:03;;;;;;;4.07;2.33;;;;;;;;;;4973053;28;20446;-76
2023/09/20 16:30:29;;;;;;;4.80;2.10;;;;;;;;;;4973100;28;20499;-77
2023/09/20 16:32:55;;;;;;;4.30;1.90;;;;;;;;;;4972721;28;20505;-76
2023/09/20 16:35:21;;;;;;;6.03;2.27;;;;;;;;;;4973152;28;20436;-75
2023/09/20 16:37:48;;;;;;;3.60;2.00;;;;;;;;;;4972807;28;20811;-75
2023/09/20 16:40:14;;;;;;;4.63;2.20;;;;;;;;;;4972371;28;20520;-76
2023/09/20 16:42:41;;;;;;;5.30;1.80;;;;;;;;;;4975011;28;20420;-75
2023/09/20 16:45:08;;;;;;;3.33;2.33;;;;;;;;;;4975430;28;20454;-75
2023/09/20 16:47:34;;;;;;;4.07;2.03;;;;;;;;;;4980941;28;20824;-76
2023/09/20 16:50:00;;;;;;;3.10;1.80;;;;;;;;;;4980093;28;20498;-75
2023/09/20 16:52:26;;;;;;;5.00;2.10;;;;;;;;;;4979703;28;20412;-76
2023/09/20 16:54:52;;;;;;;4.50;2.33;;;;;;;;;;4979457;28;20447;-75
2023/09/20 16:57:18;;;;;;;3.00;2.17;;;;;;;;;;4978473;28;20428;-74
2023/09/20 16:59:44;;;;;;;5.17;2.00;;;;;;;;;;4980066;28;20514;-76
2023/09/20 17:02:10;;;;;;;7.00;2.43;;;;;;;;;;4978965;28;20918;-74
2023/09/20 17:04:40;;;;;;;5.13;2.70;;;;;;;;;;4974330;28;20475;-74
2023/09/20 17:07:06;;;;;;;3.33;1.90;;;;;;;;;;4979005;28;20490;-74
2023/09/20 17:09:32;;;;;;;4.63;1.97;;;;;;;;;;4977349;28;20408;-73
2023/09/20 17:12:01;;;;;;;5.50;2.50;;;;;;;;;;4959747;29;20812;-74
2023/09/20 17:14:28;;;;;;;4.20;2.33;;;;;;;;;;4959301;28;21008;-75
2023/09/20 17:16:56;;;;;;;7.70;2.70;;;;;;;;;;4959608;28;20420;-71
2023/09/20 17:19:22;;;;;;;4.63;1.93;;;;;;;;;;4970434;28;20824;-73
2023/09/20 17:21:50;;;;;;;4.30;2.47;;;;;;;;;;4978066;28;20922;-73
2023/09/20 17:24:16;;;;;;;4.43;2.67;;;;;;;;;;4977275;28;20527;-73
2023/09/20 17:26:42;;;;;;;3.43;2.70;;;;;;;;;;4959208;28;20455;-75
2023/09/20 17:29:08;;;;;;;6.03;2.40;;;;;;;;;;4971287;28;20427;-74
2023/09/20 17:31:36;;;;;;;3.83;2.60;;;;;;;;;;4978751;28;20408;-74
2023/09/20 17:34:03;;;;;;;4.20;2.57;;;;;;;;;;4977984;28;20939;-72
2023/09/20 17:36:29;;;;;;;4.50;2.60;;;;;;;;;;4980356;28;20439;-73
2023/09/20 17:38:57;;;;;;;6.10;3.00;;;;;;;;;;4985699;28;20423;-73
2023/09/20 17:41:24;;;;;;;7.60;2.90;;;;;;;;;;4988998;28;20414;-73
2023/09/20 17:43:53;;;;;;;6.30;3.90;;;;;;;;;;4986799;28;20521;-73
2023/09/20 17:46:20;;;;;;;7.53;3.80;;;;;;;;;;4987199;28;20418;-73
2023/09/20 17:48:46;;;;;;;9.13;4.30;;;;;;;;;;4983458;28;20415;-73
2023/09/20 17:51:12;;;;;;;7.93;3.87;;;;;;;;;;4960878;28;20499;-74
2023/09/20 17:53:38;;;;;;;11.67;4.90;;;;;;;;;;4965399;28;20426;-73
2023/09/20 17:56:04;;;;;;;8.67;3.57;;;;;;;;;;4978431;28;20502;-74
2023/09/20 17:58:31;;;;;;;7.40;4.03;;;;;;;;;;4974914;28;20467;-75
2023/09/20 18:00:57;;;;;;;8.10;4.47;;;;;;;;;;4975697;28;20416;-74
2023/09/20 18:03:23;;;;;;;9.40;4.20;;;;;;;;;;4973600;28;20563;-74
2023/09/20 18:05:50;;;;;;;6.17;4.03;;;;;;;;;;4975373;28;20431;-72
2023/09/20 18:08:17;;;;;;;17.20;6.70;;;;;;;;;;4975301;28;20412;-73
2023/09/20 18:10:43;;;;;;;11.33;6.07;;;;;;;;;;4975432;28;20819;-74
2023/09/20 18:13:09;;;;;;;11.33;5.90;;;;;;;;;;4974606;28;20587;-73
2023/09/20 18:15:35;;;;;;;11.07;5.73;;;;;;;;;;4975727;28;20490;-71
2023/09/20 18:18:01;;;;;;;7.87;5.23;;;;;;;;;;4973476;28;20460;-70
2023/09/20 18:20:28;;;;;;;9.60;4.53;;;;;;;;;;4973831;28;20415;-71
2023/09/20 18:22:54;;;;;;;8.53;4.53;;;;;;;;;;4970892;28;20446;-70
2023/09/20 18:25:20;;;;;;;11.83;4.90;;;;;;;;;;4974641;28;20812;-68
2023/09/20 18:27:50;;;;;;;5.40;3.77;;;;;;;;;;4973004;28;20432;-69
2023/09/20 18:30:18;;;;;;;10.20;4.87;;;;;;;;;;4962248;28;20428;-69
2023/09/20 18:32:44;;;;;;;10.30;5.33;;;;;;;;;;4955156;28;20421;-70
2023/09/20 18:35:11;;;;;;;7.20;3.50;;;;;;;;;;4953937;28;21031;-68
2023/09/20 18:37:37;;;;;;;8.97;4.70;;;;;;;;;;4955388;28;20927;-67
2023/09/20 18:40:03;;;;;;;5.50;3.70;;;;;;;;;;4964883;28;20435;-69
2023/09/20 18:42:29;;;;;;;9.53;3.60;;;;;;;;;;4974728;28;20837;-68
2023/09/20 18:44:55;;;;;;;8.40;4.27;;;;;;;;;;4974272;28;20499;-68
2023/09/20 18:47:21;;;;;;;8.23;3.80;;;;;;;;;;4974967;28;21143;-67
2023/09/20 18:49:48;;;;;;;10.87;4.70;;;;;;;;;;4966409;28;20424;-69
2023/09/20 18:52:16;;;;;;;11.20;4.67;;;;;;;;;;4955704;28;20413;-69
2023/09/20 18:54:43;;;;;;;11.90;4.53;;;;;;;;;;4955288;28;20451;-74
2023/09/20 18:57:10;;;;;;;7.70;4.10;;;;;;;;;;4955566;28;20421;-68
2023/09/20 18:59:42;;;;;;;16.50;5.60;;;;;;;;;;4955414;28;20424;-71
2023/09/20 19:02:10;;;;;;;16.87;5.30;;;;;;;;;;4958598;28;20808;-68
2023/09/20 19:04:37;;;;;;;9.20;5.13;;;;;;;;;;4961879;28;20481;-69
2023/09/20 19:07:03;;;;;;;11.47;5.00;;;;;;;;;;4959857;28;20476;-68
2023/09/20 19:09:29;;;;;;;14.90;5.60;;;;;;;;;;4960231;28;20424;-68
2023/09/20 19:11:55;;;;;;;16.87;7.70;;;;;;;;;;4975434;28;20428;-68
2023/09/20 19:14:22;;;;;;;15.27;6.00;;;;;;;;;;4979033;28;20478;-68
2023/09/20 19:16:48;;;;;;;16.50;6.73;;;;;;;;;;4979260;28;20809;-68
2023/09/20 19:19:14;;;;;;;11.87;6.30;;;;;;;;;;4976411;28;20455;-68
2023/09/20 19:21:46;;;;;;;16.50;8.37;;;;;;;;;;4977477;28;20456;-71
2023/09/20 19:24:12;;;;;;;13.40;7.90;;;;;;;;;;4973594;28;20558;-68
2023/09/20 19:26:38;;;;;;;14.87;7.77;;;;;;;;;;4973747;28;20828;-69
2023/09/20 19:29:04;;;;;;;17.93;8.17;;;;;;;;;;4969743;28;20812;-68
2023/09/20 19:31:30;;;;;;;19.23;8.60;;;;;;;;;;4974317;28;20412;-71
2023/09/20 19:33:56;;;;;;;17.07;9.03;;;;;;;;;;4973875;28;20436;-71
2023/09/20 19:36:22;;;;;;;15.53;8.93;;;;;;;;;;4971866;28;20431;-71
2023/09/20 19:38:52;;;;;;;15.93;8.40;;;;;;;;;;4955286;28;20467;-71
2023/09/20 19:41:18;;;;;;;26.50;9.50;;;;;;;;;;4963372;28;20931;-71
2023/09/20 19:43:45;;;;;;;14.90;8.40;;;;;;;;;;4973693;28;20466;-71
2023/09/20 19:46:11;;;;;;;20.10;8.83;;;;;;;;;;4973821;28;20419;-70
2023/09/20 19:48:38;;;;;;;13.40;7.13;;;;;;;;;;4973529;28;20494;-70
2023/09/20 19:51:04;;;;;;;17.53;7.57;;;;;;;;;;4964746;28;20435;-70
2023/09/20 19:53:31;;;;;;;14.67;7.10;;;;;;;;;;4971941;28;20498;-71
2023/09/20 19:55:58;;;;;;;14.73;7.67;;;;;;;;;;4973909;28;20412;-71
2023/09/20 19:58:26;;;;;;;18.47;9.43;;;;;;;;;;4972720;28;20427;-71
2023/09/20 20:00:53;;;;;;;17.60;8.70;;;;;;;;;;4973109;28;20415;-71
2023/09/20 20:03:19;;;;;;;18.00;9.60;;;;;;;;;;4953930;28;20460;-73
2023/09/20 20:05:49;;;;;;;22.93;8.40;;;;;;;;;;4952921;28;20451;-73
2023/09/20 20:08:15;;;;;;;15.20;9.30;;;;;;;;;;4954195;29;20405;-74
2023/09/20 20:10:41;;;;;;;16.90;8.03;;;;;;;;;;4954294;29;20405;-73
2023/09/20 20:13:08;;;;;;;15.10;7.93;;;;;;;;;;4954051;28;20441;-72
2023/09/20 20:15:34;;;;;;;18.83;7.60;;;;;;;;;;4954075;28;20471;-72
2023/09/20 20:18:01;;;;;;;17.63;7.87;;;;;;;;;;4953962;28;20425;-71
2023/09/20 20:20:28;;;;;;;20.83;7.00;;;;;;;;;;4957699;28;20526;-71
2023/09/20 20:22:55;;;;;;;16.47;7.90;;;;;;;;;;4968888;28;20455;-72
2023/09/20 20:25:24;;;;;;;12.93;6.87;;;;;;;;;;4973248;28;20432;-71
2023/09/20 20:27:51;;;;;;;15.13;6.80;;;;;;;;;;4973337;28;20408;-71
2023/09/20 20:30:18;;;;;;;17.43;6.90;;;;;;;;;;4973309;28;20420;-70
2023/09/20 20:32:45;;;;;;;14.57;7.07;;;;;;;;;;4959275;28;20796;-73
2023/09/20 20:35:12;;;;;;;14.33;6.17;;;;;;;;;;4953677;28;20429;-71
2023/09/20 20:37:38;;;;;;;11.50;7.47;;;;;;;;;;4953898;28;20776;-71
2023/09/20 20:40:05;;;;;;;15.27;5.40;;;;;;;;;;4954189;28;20856;-74
2023/09/20 20:42:32;;;;;;;12.10;5.73;;;;;;;;;;4953776;28;20935;-72
2023/09/20 20:44:59;;;;;;;14.90;5.53;;;;;;;;;;4952524;28;20555;-71
2023/09/20 20:47:25;;;;;;;16.33;6.60;;;;;;;;;;4958821;28;20431;-72
2023/09/20 20:49:51;;;;;;;10.77;6.23;;;;;;;;;;4973108;28;20408;-72
2023/09/20 20:52:19;;;;;;;13.13;6.23;;;;;;;;;;4972954;28;20407;-72
2023/09/20 20:54:45;;;;;;;15.43;6.03;;;;;;;;;;4972925;28;20467;-71
2023/09/20 20:57:11;;;;;;;10.47;6.40;;;;;;;;;;4968742;28;20429;-70
2023/09/20 20:59:38;;;;;;;11.17;5.83;;;;;;;;;;4953898;28;20409;-71
2023/09/20 21:02:07;;;;;;;15.40;6.63;;;;;;;;;;4953748;28;20773;-71
2023/09/20 21:04:34;;;;;;;11.50;5.10;;;;;;;;;;4953454;28;20468;-71
2023/09/20 21:07:00;;;;;;;8.97;4.80;;;;;;;;;;4953812;28;20420;-70
2023/09/20 21:09:30;;;;;;;9.83;5.10;;;;;;;;;;4953913;29;20497;-71
2023/09/20 21:11:57;;;;;;;9.73;5.37;;;;;;;;;;4954373;28;20464;-73
2023/09/20 21:14:23;;;;;;;12.23;6.03;;;;;;;;;;4953455;28;20860;-71
2023/09/20 21:16:51;;;;;;;13.03;6.07;;;;;;;;;;4954126;29;20471;-71